Brandon, North Carolina
Current Conditions -  °F | °C
As of 4:55 PM on Thursday 23 Oct 2014 (Local Time) from KGEV Reporting Station
Clear Clear  
Wind Chill: 55°   Ceiling: Unl
Heat Index: 55°   Visibility: 10mi
Dew Point: 33°   Wind: 9mph
Humidity: 43%   Direction: 310°NW
Pressure: 30.05"   Gusts: NA
Location:  36.524°N, 81.538°W
Report Text: KGEV 232055Z AUTO 31008KT 10SM CLR 13/01 A3005 RMK AO2 T01300008
Loading
Personal Weather Stations






























Interactive Weather Map
Tropical Storm Tracking
New forecast layout! Learn more

10-Day Weather Forecast

Advertisements
Track Severe Weather on mobile